createdAt,value
2022-10-10T00:01:26.093Z,2.95
2022-10-10T00:03:54.331Z,3.03
2022-10-10T00:06:22.625Z,2.95
2022-10-10T00:08:50.712Z,2.92
2022-10-10T00:11:21.280Z,2.38
2022-10-10T00:13:49.528Z,2.90
2022-10-10T00:16:17.327Z,3.00
2022-10-10T00:18:45.358Z,3.30
2022-10-10T00:21:12.775Z,3.90
2022-10-10T00:23:40.276Z,3.60
2022-10-10T00:26:09.187Z,3.50
2022-10-10T00:28:38.823Z,3.47
2022-10-10T00:31:08.616Z,3.97
2022-10-10T00:33:37.399Z,3.42
2022-10-10T00:36:06.251Z,2.90
2022-10-10T00:38:34.360Z,3.40
2022-10-10T00:41:02.387Z,2.88
2022-10-10T00:43:30.984Z,3.58
2022-10-10T00:45:58.511Z,3.40
2022-10-10T00:48:33.548Z,3.40
2022-10-10T00:51:19.864Z,3.78
2022-10-10T00:53:53.229Z,4.18
2022-10-10T00:56:26.921Z,3.58
2022-10-10T00:58:56.838Z,3.67
2022-10-10T01:01:24.509Z,3.50
2022-10-10T01:03:53.922Z,3.83
2022-10-10T01:06:21.332Z,3.15
2022-10-10T01:08:48.749Z,3.88
2022-10-10T01:11:37.185Z,3.53
2022-10-10T01:14:21.056Z,3.38
2022-10-10T01:16:51.609Z,3.63
2022-10-10T01:19:47.540Z,3.92
2022-10-10T01:22:32.739Z,4.28
2022-10-10T01:25:02.830Z,4.32
2022-10-10T01:27:34.951Z,3.97
2022-10-10T01:30:16.687Z,3.38
2022-10-10T01:33:13.159Z,3.97
2022-10-10T01:36:04.471Z,3.35
2022-10-10T01:41:16.275Z,3.80
2022-10-10T01:43:44.012Z,3.63
2022-10-10T01:46:17.540Z,4.18
2022-10-10T01:48:48.079Z,4.40
2022-10-10T01:51:30.419Z,4.47
2022-10-10T01:54:32.910Z,4.07
2022-10-10T01:57:10.943Z,3.58
2022-10-10T01:59:46.900Z,4.22
2022-10-10T02:02:37.145Z,4.43
2022-10-10T02:05:16.167Z,3.92
2022-10-10T02:08:09.064Z,4.15
2022-10-10T02:10:46.755Z,3.58
2022-10-10T02:13:16.762Z,4.18
2022-10-10T02:15:48.838Z,4.70
2022-10-10T02:18:20.127Z,3.63
2022-10-10T02:20:48.868Z,3.13
2022-10-10T02:23:20.571Z,3.35
2022-10-10T02:25:53.844Z,3.13
2022-10-10T02:28:28.385Z,3.22
2022-10-10T02:31:03.518Z,3.78
2022-10-10T02:33:43.807Z,3.75
2022-10-10T02:36:12.954Z,3.77
2022-10-10T02:38:42.293Z,3.25
2022-10-10T02:41:14.844Z,3.83
2022-10-10T02:43:42.638Z,3.92
2022-10-10T02:46:13.971Z,4.10
2022-10-10T02:48:41.467Z,3.90
2022-10-10T02:51:09.701Z,3.65
2022-10-10T02:53:38.412Z,3.78
2022-10-10T02:56:06.133Z,3.42
2022-10-10T02:58:33.512Z,3.70
2022-10-10T03:01:01.091Z,3.35
2022-10-10T03:03:28.582Z,3.72
2022-10-10T03:05:55.961Z,3.17
2022-10-10T03:08:23.355Z,3.30
2022-10-10T03:10:55.349Z,3.28
2022-10-10T03:13:23.298Z,3.80
2022-10-10T03:15:50.872Z,4.03
2022-10-10T03:18:18.281Z,4.00
2022-10-10T03:20:47.111Z,3.58
2022-10-10T03:23:14.557Z,3.55
2022-10-10T03:25:45.446Z,3.67
2022-10-10T03:28:12.985Z,3.88
2022-10-10T03:30:40.592Z,4.78
2022-10-10T03:33:08.797Z,4.25
2022-10-10T03:35:36.241Z,3.63
2022-10-10T03:38:04.570Z,3.80
2022-10-10T03:40:32.309Z,3.72
2022-10-10T03:43:00.045Z,3.70
2022-10-10T03:45:27.559Z,4.00
2022-10-10T03:47:54.952Z,3.90
2022-10-10T03:50:22.369Z,3.67
2022-10-10T03:52:49.991Z,3.67
2022-10-10T03:55:17.862Z,4.10
2022-10-10T03:57:45.271Z,3.88
2022-10-10T04:00:13.511Z,4.05
2022-10-10T04:02:41.215Z,3.60
2022-10-10T04:05:08.825Z,4.15
2022-10-10T04:07:36.471Z,3.38
2022-10-10T04:10:04.376Z,4.20
2022-10-10T04:12:31.779Z,3.72
2022-10-10T04:14:59.250Z,4.75
2022-10-10T04:17:26.712Z,4.28
2022-10-10T04:19:54.260Z,4.95
2022-10-10T04:22:21.683Z,4.63
2022-10-10T04:24:49.063Z,5.28
2022-10-10T04:27:17.009Z,5.40
2022-10-10T04:29:44.430Z,4.55
2022-10-10T04:32:11.899Z,4.68
2022-10-10T04:34:39.323Z,4.57
2022-10-10T04:37:06.670Z,3.97
2022-10-10T04:39:34.086Z,3.83
2022-10-10T04:42:01.479Z,4.07
2022-10-10T04:44:28.985Z,4.55
2022-10-10T04:46:56.334Z,3.70
2022-10-10T04:49:23.787Z,3.97
2022-10-10T04:51:51.249Z,3.88
2022-10-10T04:54:19.037Z,4.22
2022-10-10T04:56:46.447Z,3.38
2022-10-10T04:59:13.845Z,3.85
2022-10-10T05:01:41.311Z,3.95
2022-10-10T05:04:08.755Z,4.30
2022-10-10T05:06:36.192Z,3.38
2022-10-10T05:09:03.877Z,3.97
2022-10-10T05:11:31.359Z,3.72
2022-10-10T05:13:58.778Z,4.25
2022-10-10T05:16:26.422Z,4.32
2022-10-10T05:18:53.993Z,4.57
2022-10-10T05:21:21.440Z,3.97
2022-10-10T05:23:48.818Z,4.20
2022-10-10T05:26:16.300Z,4.00
2022-10-10T05:28:43.700Z,4.25
2022-10-10T05:31:11.232Z,4.00
2022-10-10T05:33:38.672Z,3.75
2022-10-10T05:36:09.045Z,4.10
2022-10-10T05:38:36.948Z,4.45
2022-10-10T05:41:05.251Z,4.18
2022-10-10T05:43:32.721Z,3.85
2022-10-10T05:46:00.109Z,4.70
2022-10-10T05:48:27.641Z,4.35
2022-10-10T05:50:57.292Z,3.47
2022-10-10T05:53:28.331Z,3.60
2022-10-10T05:58:23.087Z,3.42
2022-10-10T06:00:50.504Z,3.55
2022-10-10T06:03:18.043Z,3.33
2022-10-10T06:05:51.013Z,4.00
2022-10-10T06:08:18.389Z,3.72
2022-10-10T06:10:46.493Z,4.30
2022-10-10T06:13:20.318Z,4.20
2022-10-10T06:15:52.324Z,3.90
2022-10-10T06:18:19.740Z,4.05
2022-10-10T06:20:47.185Z,3.90
2022-10-10T06:23:14.619Z,4.00
2022-10-10T06:25:42.360Z,4.50
2022-10-10T06:28:11.266Z,3.78
2022-10-10T06:30:43.794Z,4.10
2022-10-10T06:33:12.643Z,4.10
2022-10-10T06:35:44.435Z,4.03
2022-10-10T06:38:12.942Z,4.28
2022-10-10T06:40:41.190Z,4.40
2022-10-10T06:43:12.388Z,4.97
2022-10-10T06:45:42.461Z,3.58
2022-10-10T06:48:14.355Z,4.60
2022-10-10T06:50:41.969Z,3.85
2022-10-10T06:53:09.417Z,3.85
2022-10-10T06:55:36.952Z,3.78
2022-10-10T06:58:04.452Z,3.95
2022-10-10T07:00:31.906Z,3.78
2022-10-10T07:02:59.322Z,4.28
2022-10-10T07:05:26.741Z,4.45
2022-10-10T07:07:54.152Z,4.72
2022-10-10T07:10:21.617Z,4.40
2022-10-10T07:12:49.083Z,5.10
2022-10-10T07:15:16.692Z,4.40
2022-10-10T07:17:44.082Z,5.07
2022-10-10T07:20:11.533Z,5.18
2022-10-10T07:22:38.929Z,3.58
2022-10-10T07:25:06.676Z,4.53
2022-10-10T07:27:34.084Z,4.22
2022-10-10T07:30:01.624Z,3.45
2022-10-10T07:32:29.011Z,3.30
2022-10-10T07:34:58.520Z,3.38
2022-10-10T07:37:25.974Z,3.50
2022-10-10T07:39:54.187Z,3.33
2022-10-10T07:42:21.658Z,3.28
2022-10-10T07:44:49.028Z,4.00
2022-10-10T07:47:16.452Z,3.83
2022-10-10T07:49:43.834Z,3.72
2022-10-10T07:52:11.249Z,4.53
2022-10-10T07:54:38.596Z,4.40
2022-10-10T07:57:05.998Z,4.10
2022-10-10T07:59:33.592Z,3.60
2022-10-10T08:02:01.097Z,3.50
2022-10-10T08:04:28.627Z,3.72
2022-10-10T08:07:16.014Z,3.88
2022-10-10T08:09:43.416Z,3.63
2022-10-10T08:12:10.775Z,4.10
2022-10-10T08:14:38.236Z,3.78
2022-10-10T08:17:05.609Z,3.83
2022-10-10T08:19:33.032Z,3.50
2022-10-10T08:22:00.762Z,3.60
2022-10-10T08:24:28.310Z,3.97
2022-10-10T08:26:55.733Z,3.00
2022-10-10T08:29:23.218Z,4.35
2022-10-10T08:31:50.750Z,3.33
2022-10-10T08:34:18.154Z,3.25
2022-10-10T08:36:45.571Z,3.40
2022-10-10T08:39:12.980Z,3.95
2022-10-10T08:41:51.606Z,4.22
2022-10-10T08:44:26.892Z,3.42
2022-10-10T08:46:58.451Z,3.38
2022-10-10T08:49:29.982Z,3.08
2022-10-10T08:52:32.471Z,2.72
2022-10-10T08:55:04.236Z,3.30
2022-10-10T08:57:48.332Z,4.72
2022-10-10T09:00:19.014Z,2.95
2022-10-10T09:02:56.879Z,3.28
2022-10-10T09:05:52.411Z,5.13
2022-10-10T09:08:26.934Z,3.40
2022-10-10T09:11:14.545Z,4.82
2022-10-10T09:14:29.522Z,2.70
2022-10-10T09:17:05.368Z,3.22
2022-10-10T09:20:07.486Z,2.20
2022-10-10T09:22:49.099Z,1.90
2022-10-10T09:25:27.112Z,2.20
2022-10-10T09:28:01.858Z,1.80
2022-10-10T09:30:31.408Z,1.98
2022-10-10T09:33:06.270Z,1.88
2022-10-10T09:35:38.132Z,0.80
2022-10-10T09:38:11.500Z,1.35
2022-10-10T09:40:45.029Z,1.58
2022-10-10T09:43:18.885Z,1.42
2022-10-10T09:45:58.972Z,1.50
2022-10-10T09:48:33.019Z,1.30
2022-10-10T09:51:03.119Z,1.50
2022-10-10T09:53:30.605Z,1.30
2022-10-10T09:55:59.818Z,1.17
2022-10-10T09:58:43.232Z,1.50
2022-10-10T10:01:20.284Z,1.02
2022-10-10T10:04:23.380Z,1.02
2022-10-10T10:07:03.383Z,1.42
2022-10-10T10:09:30.861Z,1.00
2022-10-10T10:11:58.801Z,1.60
2022-10-10T10:14:32.345Z,1.27
2022-10-10T10:17:17.449Z,1.02
2022-10-10T10:19:46.797Z,1.10
2022-10-10T10:22:35.490Z,0.60
2022-10-10T10:25:32.024Z,0.73
2022-10-10T10:28:11.831Z,1.10
2022-10-10T10:30:40.594Z,1.73
2022-10-10T10:33:10.804Z,1.10
2022-10-10T10:35:50.174Z,0.70
2022-10-10T10:38:43.232Z,0.80
2022-10-10T10:41:37.708Z,0.30
2022-10-10T10:44:27.784Z,0.63
2022-10-10T10:47:11.345Z,0.50
2022-10-10T10:50:14.773Z,0.40
2022-10-10T10:52:57.924Z,0.60
2022-10-10T10:55:53.245Z,0.60
2022-10-10T11:05:21.993Z,0.60
2022-10-10T11:07:44.770Z,0.50
2022-10-10T11:10:21.735Z,0.40
2022-10-10T11:13:03.498Z,0.60
2022-10-10T11:18:51.527Z,1.15
2022-10-10T11:21:25.434Z,1.10
2022-10-10T11:23:56.369Z,0.60
2022-10-10T11:26:46.986Z,0.85
2022-10-10T11:29:23.076Z,0.57
2022-10-10T11:32:03.214Z,0.50
2022-10-10T11:34:39.712Z,0.90
2022-10-10T11:37:16.665Z,0.50
2022-10-10T11:39:55.437Z,0.60
2022-10-10T11:42:46.701Z,0.50
2022-10-10T11:45:20.201Z,0.52
2022-10-10T11:47:59.062Z,0.60
2022-10-10T11:50:30.162Z,0.60
2022-10-10T11:53:25.490Z,0.80
2022-10-10T11:56:30.581Z,0.70
2022-10-10T11:59:05.314Z,0.60
2022-10-10T12:01:35.306Z,0.60
2022-10-10T12:04:02.754Z,0.55
2022-10-10T12:06:45.673Z,0.40
2022-10-10T12:09:21.876Z,0.60
2022-10-10T12:12:19.386Z,1.45
2022-10-10T12:14:54.293Z,1.08
2022-10-10T12:17:36.466Z,0.90
2022-10-10T12:20:28.000Z,0.60
2022-10-10T12:23:23.664Z,0.40
2022-10-10T12:25:51.240Z,0.70
2022-10-10T12:28:18.745Z,0.40
2022-10-10T12:30:58.155Z,0.60
2022-10-10T12:33:29.028Z,0.70
2022-10-10T12:35:56.520Z,0.50
2022-10-10T12:38:25.517Z,0.30
2022-10-10T12:41:06.482Z,0.88
2022-10-10T12:46:43.245Z,0.85
2022-10-10T12:49:18.822Z,0.38
2022-10-10T12:52:09.592Z,0.43
2022-10-10T12:54:45.761Z,0.38
2022-10-10T12:57:13.330Z,0.40
2022-10-10T12:59:41.556Z,0.30
2022-10-10T13:02:28.136Z,0.50
2022-10-10T13:05:00.131Z,0.50
2022-10-10T13:07:27.682Z,0.60
2022-10-10T13:10:07.841Z,1.13
2022-10-10T13:12:35.650Z,0.80
2022-10-10T13:15:03.123Z,0.80
2022-10-10T13:17:41.078Z,0.43
2022-10-10T13:20:32.035Z,0.70
2022-10-10T13:25:30.149Z,1.00
2022-10-10T13:27:57.884Z,0.90
2022-10-10T13:30:26.149Z,0.80
2022-10-10T13:32:55.045Z,1.00
2022-10-10T13:35:26.325Z,1.10
2022-10-10T13:38:00.487Z,0.50
2022-10-10T13:40:28.721Z,0.82
2022-10-10T13:42:56.619Z,0.70
2022-10-10T13:45:32.119Z,0.95
2022-10-10T13:48:02.466Z,0.73
2022-10-10T13:50:44.592Z,0.60
2022-10-10T13:53:27.139Z,0.80
2022-10-10T13:56:42.026Z,0.60
2022-10-10T13:59:13.150Z,0.70
2022-10-10T14:01:47.541Z,0.60
2022-10-10T14:04:37.024Z,0.52
2022-10-10T14:07:11.186Z,0.50
2022-10-10T14:09:41.465Z,0.88
2022-10-10T14:12:24.651Z,1.20
2022-10-10T14:14:54.885Z,1.20
2022-10-10T14:17:22.309Z,1.33
2022-10-10T14:19:50.316Z,1.33
2022-10-10T14:22:18.208Z,1.30
2022-10-10T14:24:45.687Z,0.60
2022-10-10T14:27:15.726Z,0.50
2022-10-10T14:29:43.434Z,0.47
2022-10-10T14:32:12.624Z,0.60
2022-10-10T14:34:40.546Z,0.85
2022-10-10T14:37:19.430Z,0.50
2022-10-10T14:39:47.397Z,0.50
2022-10-10T14:42:17.622Z,0.50
2022-10-10T14:44:45.266Z,0.57
2022-10-10T14:47:25.861Z,1.27
2022-10-10T14:52:56.316Z,1.70
2022-10-10T14:55:23.745Z,1.38
2022-10-10T14:57:51.213Z,1.63
2022-10-10T15:00:21.540Z,3.67
2022-10-10T15:02:49.083Z,5.30
2022-10-10T15:05:17.261Z,5.13
2022-10-10T15:07:45.463Z,6.18
2022-10-10T15:13:05.775Z,6.80
2022-10-10T15:15:33.224Z,7.25
2022-10-10T15:18:01.029Z,7.15
2022-10-10T15:20:31.878Z,12.35
2022-10-10T15:23:04.805Z,37.83
2022-10-10T15:25:33.950Z,47.75
2022-10-10T15:28:05.408Z,19.80
2022-10-10T15:30:32.926Z,17.70
2022-10-10T15:33:00.325Z,20.08
2022-10-10T15:35:39.941Z,45.50
2022-10-10T15:38:15.222Z,16.45
2022-10-10T15:40:42.647Z,55.90
2022-10-10T15:43:10.146Z,88.53
2022-10-10T15:45:55.444Z,27.70
2022-10-10T15:48:23.751Z,46.50
2022-10-10T15:50:51.593Z,25.35
2022-10-10T15:53:19.299Z,13.63
2022-10-10T15:55:47.975Z,14.57
2022-10-10T15:58:16.079Z,15.50
2022-10-10T16:00:44.679Z,17.38
2022-10-10T16:03:12.399Z,27.50
2022-10-10T16:05:41.050Z,22.60
2022-10-10T16:08:12.227Z,29.05
2022-10-10T16:13:09.018Z,27.17
2022-10-10T16:15:36.487Z,28.90
2022-10-10T16:18:04.032Z,24.67
2022-10-10T16:20:31.500Z,22.25
2022-10-10T16:22:58.953Z,18.92
2022-10-10T16:25:26.432Z,16.48
2022-10-10T16:27:53.894Z,18.35
2022-10-10T16:30:21.491Z,17.45
2022-10-10T16:32:49.375Z,17.20
2022-10-10T16:35:16.841Z,17.55
2022-10-10T16:37:44.236Z,25.02
2022-10-10T16:40:11.973Z,27.35
2022-10-10T16:42:39.431Z,21.73
2022-10-10T16:45:07.490Z,14.00
2022-10-10T16:47:35.336Z,12.57
2022-10-10T16:50:03.724Z,15.32
2022-10-10T16:52:33.168Z,29.15
2022-10-10T16:55:00.658Z,33.00
2022-10-10T16:57:28.088Z,35.08
2022-10-10T16:59:55.542Z,31.48
2022-10-10T17:02:24.763Z,32.13
2022-10-10T17:04:55.423Z,30.85
2022-10-10T17:07:22.784Z,28.58
2022-10-10T17:09:50.212Z,28.05
2022-10-10T17:12:17.643Z,28.95
2022-10-10T17:14:45.340Z,29.50
2022-10-10T17:17:13.641Z,28.25
2022-10-10T17:19:42.240Z,27.92
2022-10-10T17:22:09.698Z,27.80
2022-10-10T17:24:37.502Z,27.00
2022-10-10T17:27:05.216Z,27.73
2022-10-10T17:29:32.673Z,27.25
2022-10-10T17:32:04.222Z,26.10
2022-10-10T17:34:34.206Z,29.45
2022-10-10T17:37:01.725Z,32.75
2022-10-10T17:39:29.138Z,35.78
2022-10-10T17:41:56.636Z,43.42
2022-10-10T17:44:24.165Z,48.50
2022-10-10T17:46:51.653Z,47.03
2022-10-10T17:49:20.514Z,48.13
2022-10-10T17:51:48.166Z,47.70
2022-10-10T17:54:15.777Z,48.85
2022-10-10T17:56:44.787Z,45.00
2022-10-10T17:59:12.862Z,39.70
2022-10-10T18:01:41.456Z,39.03
2022-10-10T18:04:08.978Z,42.10
2022-10-10T18:06:37.204Z,43.47
2022-10-10T18:09:04.726Z,43.58
2022-10-10T18:11:32.391Z,40.35
2022-10-10T18:14:02.549Z,39.47
2022-10-10T18:16:36.403Z,36.37
2022-10-10T18:19:06.045Z,33.03
2022-10-10T18:21:34.285Z,33.67
2022-10-10T18:24:01.922Z,36.92
2022-10-10T18:26:30.556Z,39.83
2022-10-10T18:28:58.818Z,42.72
2022-10-10T18:31:33.146Z,39.28
2022-10-10T18:34:01.750Z,30.42
2022-10-10T18:36:31.608Z,37.88
2022-10-10T18:39:00.579Z,36.72
2022-10-10T18:41:34.210Z,37.55
2022-10-10T18:44:07.278Z,38.55
2022-10-10T18:46:35.213Z,44.05
2022-10-10T18:49:04.656Z,49.25
2022-10-10T18:51:32.482Z,44.95
2022-10-10T18:54:03.878Z,40.75
2022-10-10T18:56:32.807Z,43.25
2022-10-10T18:59:02.827Z,43.30
2022-10-10T19:01:33.417Z,42.55
2022-10-10T19:04:01.183Z,34.88
2022-10-10T19:06:29.240Z,34.13
2022-10-10T19:08:58.408Z,30.63
2022-10-10T19:11:31.457Z,30.83
2022-10-10T19:14:00.729Z,36.55
2022-10-10T19:16:28.630Z,33.08
2022-10-10T19:19:00.100Z,33.08
2022-10-10T19:21:33.581Z,33.78
2022-10-10T19:24:01.968Z,33.58
2022-10-10T19:26:34.330Z,32.35
2022-10-10T19:29:06.812Z,30.98
2022-10-10T19:31:36.539Z,26.60
2022-10-10T19:34:04.175Z,23.73
2022-10-10T19:36:31.621Z,23.60
2022-10-10T19:39:00.257Z,23.13
2022-10-10T19:41:28.656Z,19.63
2022-10-10T19:43:58.732Z,18.52
2022-10-10T19:46:27.645Z,19.45
2022-10-10T19:48:57.795Z,18.85
2022-10-10T19:51:27.128Z,19.07
2022-10-10T19:53:54.843Z,20.60
2022-10-10T19:56:27.093Z,21.45
2022-10-10T19:58:56.869Z,25.90
2022-10-10T20:01:29.322Z,24.92
2022-10-10T20:03:58.318Z,26.00
2022-10-10T20:06:27.016Z,26.55
2022-10-10T20:08:55.096Z,26.83
2022-10-10T20:11:23.473Z,24.73
2022-10-10T20:13:55.492Z,22.92
2022-10-10T20:16:24.242Z,19.58
2022-10-10T20:18:51.818Z,19.95
2022-10-10T20:21:23.828Z,19.48
2022-10-10T20:23:51.702Z,19.08
2022-10-10T20:26:21.511Z,19.08
2022-10-10T20:28:50.996Z,20.08
2022-10-10T20:31:30.553Z,21.35
2022-10-10T20:34:00.851Z,22.10
2022-10-10T20:36:30.623Z,25.05
2022-10-10T20:39:05.097Z,26.90
2022-10-10T20:41:34.803Z,29.58
2022-10-10T20:44:04.531Z,63.35
2022-10-10T20:46:37.775Z,57.15
2022-10-10T20:49:07.450Z,49.05
2022-10-10T20:51:34.945Z,43.03
2022-10-10T20:54:05.231Z,31.98
2022-10-10T20:56:35.094Z,32.22
2022-10-10T20:59:02.865Z,28.77
2022-10-10T21:01:31.178Z,17.65
2022-10-10T21:03:58.897Z,16.92
2022-10-10T21:06:29.397Z,13.77
2022-10-10T21:08:58.658Z,14.80
2022-10-10T21:11:26.092Z,15.25
2022-10-10T21:13:56.677Z,14.85
2022-10-10T21:16:30.356Z,13.52
2022-10-10T21:18:58.639Z,13.40
2022-10-10T21:21:28.378Z,30.98
2022-10-10T21:23:56.682Z,24.70
2022-10-10T21:26:26.794Z,24.88
2022-10-10T21:28:55.437Z,24.15
2022-10-10T21:31:26.639Z,29.05
2022-10-10T21:36:23.651Z,22.40
2022-10-10T21:38:51.082Z,16.95
2022-10-10T21:41:20.563Z,15.18
2022-10-10T21:43:54.799Z,13.73
2022-10-10T21:46:29.743Z,13.55
2022-10-10T21:49:00.492Z,12.85
2022-10-10T21:51:28.640Z,10.95
2022-10-10T21:53:59.068Z,9.45
2022-10-10T21:56:26.593Z,8.98
2022-10-10T21:58:58.838Z,13.15
2022-10-10T22:01:28.632Z,14.82
2022-10-10T22:03:56.578Z,16.75
2022-10-10T22:06:24.840Z,18.40
2022-10-10T22:08:56.286Z,17.40
2022-10-10T22:11:25.611Z,16.65
2022-10-10T22:13:53.449Z,18.35
2022-10-10T22:16:21.209Z,16.77
2022-10-10T22:18:53.468Z,15.02
2022-10-10T22:21:21.050Z,13.57
2022-10-10T22:23:48.688Z,12.48
2022-10-10T22:26:17.299Z,12.32
2022-10-10T22:28:45.813Z,12.23
2022-10-10T22:31:15.297Z,11.05
2022-10-10T22:33:43.069Z,9.48
2022-10-10T22:36:11.307Z,10.43
2022-10-10T22:38:40.291Z,8.75
2022-10-10T22:41:08.266Z,8.82
2022-10-10T22:43:36.042Z,9.77
2022-10-10T22:46:04.435Z,7.78
2022-10-10T22:48:32.230Z,7.00
2022-10-10T22:51:08.669Z,6.80
2022-10-10T22:53:36.108Z,6.70
2022-10-10T22:56:04.341Z,6.70
2022-10-10T22:58:32.358Z,6.95
2022-10-10T23:01:17.339Z,6.85
2022-10-10T23:03:45.022Z,6.95
2022-10-10T23:06:12.915Z,7.82
2022-10-10T23:08:40.499Z,7.95
2022-10-10T23:11:08.296Z,8.57
2022-10-10T23:13:35.945Z,8.07
2022-10-10T23:16:04.439Z,8.50
2022-10-10T23:18:32.498Z,8.23
2022-10-10T23:20:59.998Z,8.18
2022-10-10T23:23:27.529Z,8.13
2022-10-10T23:25:54.943Z,7.90
2022-10-10T23:28:22.396Z,5.63
2022-10-10T23:30:49.927Z,5.88
2022-10-10T23:33:17.572Z,5.78
2022-10-10T23:35:45.324Z,5.80
2022-10-10T23:38:12.684Z,5.95
2022-10-10T23:40:40.103Z,5.13
2022-10-10T23:43:07.875Z,6.00
2022-10-10T23:45:35.382Z,6.70
2022-10-10T23:48:02.799Z,6.13
2022-10-10T23:50:30.364Z,5.82
2022-10-10T23:52:57.775Z,6.15
2022-10-10T23:55:25.784Z,6.15
2022-10-10T23:57:53.203Z,5.55
